sensor_id;sensor_type;location;lat;lon;timestamp;P1;durP1;ratioP1;P2;durP2;ratioP2
39066;SDS011;24821;51.988;6.020;2022-09-12T00:01:19;23.35;;;21.45;;
39066;SDS011;24821;51.988;6.020;2022-09-12T00:03:47;24.65;;;22.95;;
39066;SDS011;24821;51.988;6.020;2022-09-12T00:06:16;26.25;;;24.35;;
39066;SDS011;24821;51.988;6.020;2022-09-12T00:08:44;25.30;;;23.60;;
39066;SDS011;24821;51.988;6.020;2022-09-12T00:11:10;25.45;;;23.80;;
39066;SDS011;24821;51.988;6.020;2022-09-12T00:13:37;25.83;;;23.92;;
39066;SDS011;24821;51.988;6.020;2022-09-12T00:16:03;24.42;;;22.83;;
39066;SDS011;24821;51.988;6.020;2022-09-12T00:18:30;24.38;;;22.70;;
39066;SDS011;24821;51.988;6.020;2022-09-12T00:20:56;24.75;;;23.13;;
39066;SDS011;24821;51.988;6.020;2022-09-12T00:23:21;25.75;;;23.65;;
39066;SDS011;24821;51.988;6.020;2022-09-12T00:25:47;25.48;;;23.73;;
39066;SDS011;24821;51.988;6.020;2022-09-12T00:28:13;25.75;;;23.95;;
39066;SDS011;24821;51.988;6.020;2022-09-12T00:30:45;23.42;;;21.90;;
39066;SDS011;24821;51.988;6.020;2022-09-12T00:33:12;25.25;;;23.55;;
39066;SDS011;24821;51.988;6.020;2022-09-12T00:35:41;27.10;;;25.20;;
39066;SDS011;24821;51.988;6.020;2022-09-12T00:40:41;25.48;;;23.58;;
39066;SDS011;24821;51.988;6.020;2022-09-12T00:43:14;23.48;;;21.88;;
39066;SDS011;24821;51.988;6.020;2022-09-12T00:45:58;23.70;;;22.02;;
39066;SDS011;24821;51.988;6.020;2022-09-12T00:48:38;23.48;;;21.90;;
39066;SDS011;24821;51.988;6.020;2022-09-12T00:51:07;23.23;;;21.52;;
39066;SDS011;24821;51.988;6.020;2022-09-12T00:53:34;22.55;;;21.05;;
39066;SDS011;24821;51.988;6.020;2022-09-12T00:56:00;22.92;;;21.30;;
39066;SDS011;24821;51.988;6.020;2022-09-12T00:58:30;22.92;;;21.42;;
39066;SDS011;24821;51.988;6.020;2022-09-12T01:01:03;23.33;;;21.73;;
39066;SDS011;24821;51.988;6.020;2022-09-12T01:03:28;24.52;;;22.80;;
39066;SDS011;24821;51.988;6.020;2022-09-12T01:06:09;24.77;;;23.08;;
39066;SDS011;24821;51.988;6.020;2022-09-12T01:08:42;24.75;;;22.83;;
39066;SDS011;24821;51.988;6.020;2022-09-12T01:11:08;25.48;;;23.60;;
39066;SDS011;24821;51.988;6.020;2022-09-12T01:13:34;25.58;;;23.60;;
39066;SDS011;24821;51.988;6.020;2022-09-12T01:16:01;24.75;;;22.98;;
39066;SDS011;24821;51.988;6.020;2022-09-12T01:18:43;25.45;;;23.35;;
39066;SDS011;24821;51.988;6.020;2022-09-12T01:21:41;25.17;;;23.10;;
39066;SDS011;24821;51.988;6.020;2022-09-12T01:30:14;28.08;;;25.88;;
39066;SDS011;24821;51.988;6.020;2022-09-12T01:41:11;26.42;;;24.30;;
39066;SDS011;24821;51.988;6.020;2022-09-12T01:46:16;25.17;;;23.00;;
39066;SDS011;24821;51.988;6.020;2022-09-12T01:48:46;26.88;;;24.48;;
39066;SDS011;24821;51.988;6.020;2022-09-12T01:51:22;26.30;;;24.02;;
39066;SDS011;24821;51.988;6.020;2022-09-12T01:53:53;28.15;;;25.88;;
39066;SDS011;24821;51.988;6.020;2022-09-12T01:56:26;27.27;;;24.90;;
39066;SDS011;24821;51.988;6.020;2022-09-12T01:59:05;29.40;;;26.65;;
39066;SDS011;24821;51.988;6.020;2022-09-12T02:01:49;27.65;;;25.33;;
39066;SDS011;24821;51.988;6.020;2022-09-12T02:04:33;29.17;;;26.73;;
39066;SDS011;24821;51.988;6.020;2022-09-12T02:07:10;30.20;;;27.75;;
39066;SDS011;24821;51.988;6.020;2022-09-12T02:10:15;29.55;;;27.02;;
39066;SDS011;24821;51.988;6.020;2022-09-12T02:13:09;31.98;;;28.95;;
39066;SDS011;24821;51.988;6.020;2022-09-12T02:15:40;27.98;;;25.63;;
39066;SDS011;24821;51.988;6.020;2022-09-12T02:18:12;27.52;;;25.38;;
39066;SDS011;24821;51.988;6.020;2022-09-12T02:20:41;28.70;;;26.38;;
39066;SDS011;24821;51.988;6.020;2022-09-12T02:23:10;29.48;;;26.85;;
39066;SDS011;24821;51.988;6.020;2022-09-12T02:25:41;27.77;;;25.40;;
39066;SDS011;24821;51.988;6.020;2022-09-12T02:28:11;29.33;;;26.95;;
39066;SDS011;24821;51.988;6.020;2022-09-12T02:30:43;28.08;;;25.48;;
39066;SDS011;24821;51.988;6.020;2022-09-12T02:33:32;25.17;;;23.08;;
39066;SDS011;24821;51.988;6.020;2022-09-12T02:36:10;26.33;;;24.13;;
39066;SDS011;24821;51.988;6.020;2022-09-12T02:38:48;25.42;;;23.08;;
39066;SDS011;24821;51.988;6.020;2022-09-12T02:41:14;25.83;;;23.52;;
39066;SDS011;24821;51.988;6.020;2022-09-12T02:43:42;24.63;;;22.60;;
39066;SDS011;24821;51.988;6.020;2022-09-12T02:46:09;25.40;;;23.30;;
39066;SDS011;24821;51.988;6.020;2022-09-12T02:48:40;26.00;;;23.65;;
39066;SDS011;24821;51.988;6.020;2022-09-12T02:51:07;26.30;;;24.02;;
39066;SDS011;24821;51.988;6.020;2022-09-12T02:53:35;24.92;;;22.67;;
39066;SDS011;24821;51.988;6.020;2022-09-12T02:56:02;25.83;;;23.50;;
39066;SDS011;24821;51.988;6.020;2022-09-12T02:58:32;27.10;;;24.92;;
39066;SDS011;24821;51.988;6.020;2022-09-12T03:04:04;22.45;;;20.65;;
39066;SDS011;24821;51.988;6.020;2022-09-12T03:09:17;24.23;;;21.92;;
39066;SDS011;24821;51.988;6.020;2022-09-12T03:12:00;25.00;;;22.92;;
39066;SDS011;24821;51.988;6.020;2022-09-12T03:14:51;24.08;;;22.10;;
39066;SDS011;24821;51.988;6.020;2022-09-12T03:17:41;24.65;;;22.63;;
39066;SDS011;24821;51.988;6.020;2022-09-12T03:22:55;25.25;;;23.23;;
39066;SDS011;24821;51.988;6.020;2022-09-12T03:25:40;25.88;;;23.65;;
39066;SDS011;24821;51.988;6.020;2022-09-12T03:28:10;26.70;;;24.08;;
39066;SDS011;24821;51.988;6.020;2022-09-12T03:30:39;25.27;;;23.42;;
39066;SDS011;24821;51.988;6.020;2022-09-12T03:33:09;25.38;;;23.17;;
39066;SDS011;24821;51.988;6.020;2022-09-12T03:35:35;23.80;;;21.90;;
39066;SDS011;24821;51.988;6.020;2022-09-12T03:38:01;23.73;;;21.73;;
39066;SDS011;24821;51.988;6.020;2022-09-12T03:40:26;24.55;;;22.42;;
39066;SDS011;24821;51.988;6.020;2022-09-12T03:42:52;26.55;;;24.15;;
39066;SDS011;24821;51.988;6.020;2022-09-12T03:45:17;26.10;;;23.80;;
39066;SDS011;24821;51.988;6.020;2022-09-12T03:47:43;27.20;;;24.45;;
39066;SDS011;24821;51.988;6.020;2022-09-12T03:50:08;28.63;;;26.15;;
39066;SDS011;24821;51.988;6.020;2022-09-12T03:52:34;28.52;;;26.02;;
39066;SDS011;24821;51.988;6.020;2022-09-12T03:55:00;29.23;;;26.48;;
39066;SDS011;24821;51.988;6.020;2022-09-12T03:57:25;29.45;;;26.77;;
39066;SDS011;24821;51.988;6.020;2022-09-12T03:59:51;28.42;;;25.75;;
39066;SDS011;24821;51.988;6.020;2022-09-12T04:02:16;26.05;;;23.63;;
39066;SDS011;24821;51.988;6.020;2022-09-12T04:04:42;25.77;;;23.63;;
39066;SDS011;24821;51.988;6.020;2022-09-12T04:07:08;26.20;;;24.00;;
39066;SDS011;24821;51.988;6.020;2022-09-12T04:09:35;26.00;;;23.80;;
39066;SDS011;24821;51.988;6.020;2022-09-12T04:12:00;24.67;;;22.70;;
39066;SDS011;24821;51.988;6.020;2022-09-12T04:14:26;24.05;;;22.08;;
39066;SDS011;24821;51.988;6.020;2022-09-12T04:16:51;24.92;;;22.83;;
39066;SDS011;24821;51.988;6.020;2022-09-12T04:19:17;24.17;;;21.88;;
39066;SDS011;24821;51.988;6.020;2022-09-12T04:21:42;23.63;;;21.63;;
39066;SDS011;24821;51.988;6.020;2022-09-12T04:24:08;23.85;;;21.88;;
39066;SDS011;24821;51.988;6.020;2022-09-12T04:26:33;23.42;;;21.42;;
39066;SDS011;24821;51.988;6.020;2022-09-12T04:28:59;23.23;;;21.23;;
39066;SDS011;24821;51.988;6.020;2022-09-12T04:31:25;24.95;;;22.88;;
39066;SDS011;24821;51.988;6.020;2022-09-12T04:33:54;25.65;;;23.40;;
39066;SDS011;24821;51.988;6.020;2022-09-12T04:36:21;24.17;;;21.95;;
39066;SDS011;24821;51.988;6.020;2022-09-12T04:38:48;23.20;;;21.33;;
39066;SDS011;24821;51.988;6.020;2022-09-12T04:41:18;24.25;;;22.23;;
39066;SDS011;24821;51.988;6.020;2022-09-12T04:43:56;24.65;;;22.58;;
39066;SDS011;24821;51.988;6.020;2022-09-12T04:46:25;25.20;;;23.02;;
39066;SDS011;24821;51.988;6.020;2022-09-12T04:48:54;23.58;;;21.70;;
39066;SDS011;24821;51.988;6.020;2022-09-12T04:51:22;25.13;;;22.85;;
39066;SDS011;24821;51.988;6.020;2022-09-12T04:53:53;23.90;;;21.92;;
39066;SDS011;24821;51.988;6.020;2022-09-12T04:56:22;24.15;;;22.15;;
39066;SDS011;24821;51.988;6.020;2022-09-12T04:58:49;25.23;;;22.83;;
39066;SDS011;24821;51.988;6.020;2022-09-12T05:01:16;25.20;;;23.00;;
39066;SDS011;24821;51.988;6.020;2022-09-12T05:03:43;27.63;;;25.35;;
39066;SDS011;24821;51.988;6.020;2022-09-12T05:06:14;30.38;;;27.40;;
39066;SDS011;24821;51.988;6.020;2022-09-12T05:08:41;29.98;;;27.23;;
39066;SDS011;24821;51.988;6.020;2022-09-12T05:11:08;31.60;;;27.58;;
39066;SDS011;24821;51.988;6.020;2022-09-12T05:13:36;30.50;;;27.65;;
39066;SDS011;24821;51.988;6.020;2022-09-12T05:16:03;31.02;;;28.30;;
39066;SDS011;24821;51.988;6.020;2022-09-12T05:18:30;33.17;;;29.80;;
39066;SDS011;24821;51.988;6.020;2022-09-12T05:21:01;33.08;;;29.73;;
39066;SDS011;24821;51.988;6.020;2022-09-12T05:23:28;32.03;;;28.85;;
39066;SDS011;24821;51.988;6.020;2022-09-12T05:25:54;30.95;;;28.05;;
39066;SDS011;24821;51.988;6.020;2022-09-12T05:28:21;30.17;;;27.38;;
39066;SDS011;24821;51.988;6.020;2022-09-12T05:30:47;29.58;;;26.77;;
39066;SDS011;24821;51.988;6.020;2022-09-12T05:33:50;28.92;;;26.38;;
39066;SDS011;24821;51.988;6.020;2022-09-12T05:36:18;29.42;;;26.65;;
39066;SDS011;24821;51.988;6.020;2022-09-12T05:38:45;30.67;;;27.48;;
39066;SDS011;24821;51.988;6.020;2022-09-12T05:41:12;30.75;;;27.58;;
39066;SDS011;24821;51.988;6.020;2022-09-12T05:43:43;31.90;;;28.35;;
39066;SDS011;24821;51.988;6.020;2022-09-12T05:46:10;32.08;;;29.00;;
39066;SDS011;24821;51.988;6.020;2022-09-12T05:48:41;29.95;;;26.92;;
39066;SDS011;24821;51.988;6.020;2022-09-12T05:51:09;31.83;;;28.45;;
39066;SDS011;24821;51.988;6.020;2022-09-12T05:53:43;28.88;;;26.27;;
39066;SDS011;24821;51.988;6.020;2022-09-12T05:56:10;32.85;;;29.52;;
39066;SDS011;24821;51.988;6.020;2022-09-12T05:58:38;30.30;;;27.55;;
39066;SDS011;24821;51.988;6.020;2022-09-12T06:01:07;30.20;;;27.35;;
39066;SDS011;24821;51.988;6.020;2022-09-12T06:03:35;33.40;;;29.98;;
39066;SDS011;24821;51.988;6.020;2022-09-12T06:06:04;28.52;;;25.77;;
39066;SDS011;24821;51.988;6.020;2022-09-12T06:08:31;33.50;;;30.38;;
39066;SDS011;24821;51.988;6.020;2022-09-12T06:11:00;34.03;;;30.73;;
39066;SDS011;24821;51.988;6.020;2022-09-12T06:13:30;34.35;;;31.10;;
39066;SDS011;24821;51.988;6.020;2022-09-12T06:16:03;33.42;;;30.30;;
39066;SDS011;24821;51.988;6.020;2022-09-12T06:18:40;33.22;;;30.23;;
39066;SDS011;24821;51.988;6.020;2022-09-12T06:21:11;33.50;;;30.40;;
39066;SDS011;24821;51.988;6.020;2022-09-12T06:23:37;35.70;;;32.53;;
39066;SDS011;24821;51.988;6.020;2022-09-12T06:26:04;34.05;;;30.88;;
39066;SDS011;24821;51.988;6.020;2022-09-12T06:28:31;33.92;;;30.88;;
39066;SDS011;24821;51.988;6.020;2022-09-12T06:31:09;36.78;;;33.60;;
39066;SDS011;24821;51.988;6.020;2022-09-12T06:33:38;34.88;;;31.77;;
39066;SDS011;24821;51.988;6.020;2022-09-12T06:36:05;40.83;;;37.33;;
39066;SDS011;24821;51.988;6.020;2022-09-12T06:38:33;39.30;;;35.95;;
39066;SDS011;24821;51.988;6.020;2022-09-12T06:40:59;41.67;;;38.15;;
39066;SDS011;24821;51.988;6.020;2022-09-12T06:43:27;41.70;;;38.17;;
39066;SDS011;24821;51.988;6.020;2022-09-12T06:45:53;39.58;;;36.08;;
39066;SDS011;24821;51.988;6.020;2022-09-12T06:48:18;38.03;;;34.90;;
39066;SDS011;24821;51.988;6.020;2022-09-12T06:50:53;39.03;;;35.90;;
39066;SDS011;24821;51.988;6.020;2022-09-12T06:53:23;39.45;;;36.47;;
39066;SDS011;24821;51.988;6.020;2022-09-12T06:55:56;40.00;;;36.95;;
39066;SDS011;24821;51.988;6.020;2022-09-12T06:58:23;39.65;;;36.53;;
39066;SDS011;24821;51.988;6.020;2022-09-12T07:00:49;43.35;;;39.63;;
39066;SDS011;24821;51.988;6.020;2022-09-12T07:03:15;43.38;;;39.67;;
39066;SDS011;24821;51.988;6.020;2022-09-12T07:05:41;41.13;;;37.92;;
39066;SDS011;24821;51.988;6.020;2022-09-12T07:08:06;40.97;;;37.63;;
39066;SDS011;24821;51.988;6.020;2022-09-12T07:10:32;41.38;;;38.15;;
39066;SDS011;24821;51.988;6.020;2022-09-12T07:12:57;43.25;;;39.78;;
39066;SDS011;24821;51.988;6.020;2022-09-12T07:15:23;43.83;;;40.25;;
39066;SDS011;24821;51.988;6.020;2022-09-12T07:17:49;44.08;;;40.47;;
39066;SDS011;24821;51.988;6.020;2022-09-12T07:20:14;43.63;;;40.22;;
39066;SDS011;24821;51.988;6.020;2022-09-12T07:22:40;42.75;;;39.00;;
39066;SDS011;24821;51.988;6.020;2022-09-12T07:25:06;44.45;;;40.55;;
39066;SDS011;24821;51.988;6.020;2022-09-12T07:27:32;48.40;;;44.55;;
39066;SDS011;24821;51.988;6.020;2022-09-12T07:29:57;40.55;;;36.95;;
39066;SDS011;24821;51.988;6.020;2022-09-12T07:32:23;40.92;;;36.80;;
39066;SDS011;24821;51.988;6.020;2022-09-12T07:34:50;39.88;;;36.33;;
39066;SDS011;24821;51.988;6.020;2022-09-12T07:37:16;42.47;;;38.45;;
39066;SDS011;24821;51.988;6.020;2022-09-12T07:39:42;45.35;;;40.63;;
39066;SDS011;24821;51.988;6.020;2022-09-12T07:42:07;39.30;;;35.75;;
39066;SDS011;24821;51.988;6.020;2022-09-12T07:44:33;41.13;;;37.45;;
39066;SDS011;24821;51.988;6.020;2022-09-12T07:46:59;41.22;;;37.38;;
39066;SDS011;24821;51.988;6.020;2022-09-12T07:49:24;41.33;;;37.47;;
39066;SDS011;24821;51.988;6.020;2022-09-12T07:51:50;39.13;;;35.65;;
39066;SDS011;24821;51.988;6.020;2022-09-12T07:54:16;42.08;;;38.17;;
39066;SDS011;24821;51.988;6.020;2022-09-12T07:56:41;43.05;;;39.20;;
39066;SDS011;24821;51.988;6.020;2022-09-12T07:59:07;40.50;;;36.85;;
39066;SDS011;24821;51.988;6.020;2022-09-12T08:01:33;42.53;;;38.55;;
39066;SDS011;24821;51.988;6.020;2022-09-12T08:03:59;42.58;;;38.70;;
39066;SDS011;24821;51.988;6.020;2022-09-12T08:06:25;43.17;;;39.35;;
39066;SDS011;24821;51.988;6.020;2022-09-12T08:08:55;46.50;;;42.15;;
39066;SDS011;24821;51.988;6.020;2022-09-12T08:11:22;42.42;;;38.75;;
39066;SDS011;24821;51.988;6.020;2022-09-12T08:13:49;43.42;;;39.20;;
39066;SDS011;24821;51.988;6.020;2022-09-12T08:16:19;42.25;;;38.15;;
39066;SDS011;24821;51.988;6.020;2022-09-12T08:18:46;41.92;;;38.28;;
39066;SDS011;24821;51.988;6.020;2022-09-12T08:21:14;39.00;;;35.50;;
39066;SDS011;24821;51.988;6.020;2022-09-12T08:27:04;42.43;;;38.63;;
39066;SDS011;24821;51.988;6.020;2022-09-12T08:33:04;41.05;;;37.63;;
39066;SDS011;24821;51.988;6.020;2022-09-12T08:36:16;37.67;;;34.45;;
39066;SDS011;24821;51.988;6.020;2022-09-12T08:38:48;37.85;;;34.50;;
39066;SDS011;24821;51.988;6.020;2022-09-12T08:49:22;29.27;;;26.58;;
39066;SDS011;24821;51.988;6.020;2022-09-12T08:51:50;25.00;;;22.80;;
39066;SDS011;24821;51.988;6.020;2022-09-12T08:54:20;26.58;;;24.13;;
39066;SDS011;24821;51.988;6.020;2022-09-12T08:59:16;22.15;;;19.92;;
39066;SDS011;24821;51.988;6.020;2022-09-12T09:01:43;23.45;;;21.38;;
39066;SDS011;24821;51.988;6.020;2022-09-12T09:15:22;26.88;;;24.27;;
39066;SDS011;24821;51.988;6.020;2022-09-12T09:18:14;25.90;;;23.63;;
39066;SDS011;24821;51.988;6.020;2022-09-12T09:20:49;28.15;;;25.65;;
39066;SDS011;24821;51.988;6.020;2022-09-12T09:23:49;25.90;;;23.45;;
39066;SDS011;24821;51.988;6.020;2022-09-12T09:26:44;25.50;;;23.30;;
39066;SDS011;24821;51.988;6.020;2022-09-12T09:29:13;25.52;;;23.10;;
39066;SDS011;24821;51.988;6.020;2022-09-12T09:31:40;25.50;;;23.50;;
39066;SDS011;24821;51.988;6.020;2022-09-12T09:34:13;22.77;;;20.88;;
39066;SDS011;24821;51.988;6.020;2022-09-12T09:45:12;24.55;;;22.48;;
39066;SDS011;24821;51.988;6.020;2022-09-12T09:47:40;22.98;;;20.85;;
39066;SDS011;24821;51.988;6.020;2022-09-12T09:50:22;22.27;;;20.38;;
39066;SDS011;24821;51.988;6.020;2022-09-12T09:52:48;21.13;;;18.98;;
39066;SDS011;24821;51.988;6.020;2022-09-12T09:55:17;19.98;;;18.38;;
39066;SDS011;24821;51.988;6.020;2022-09-12T09:57:47;18.30;;;16.85;;
39066;SDS011;24821;51.988;6.020;2022-09-12T10:00:20;18.40;;;16.83;;
39066;SDS011;24821;51.988;6.020;2022-09-12T10:03:00;18.30;;;16.83;;
39066;SDS011;24821;51.988;6.020;2022-09-12T10:05:46;16.42;;;15.23;;
39066;SDS011;24821;51.988;6.020;2022-09-12T10:08:23;16.98;;;15.63;;
39066;SDS011;24821;51.988;6.020;2022-09-12T10:11:01;16.40;;;15.13;;
39066;SDS011;24821;51.988;6.020;2022-09-12T10:13:36;16.92;;;15.55;;
39066;SDS011;24821;51.988;6.020;2022-09-12T10:16:06;14.23;;;13.23;;
39066;SDS011;24821;51.988;6.020;2022-09-12T10:18:46;14.30;;;13.20;;
39066;SDS011;24821;51.988;6.020;2022-09-12T10:21:17;16.38;;;15.20;;
39066;SDS011;24821;51.988;6.020;2022-09-12T10:26:52;15.73;;;14.57;;
39066;SDS011;24821;51.988;6.020;2022-09-12T10:29:27;15.80;;;14.60;;
39066;SDS011;24821;51.988;6.020;2022-09-12T10:32:00;15.98;;;14.93;;
39066;SDS011;24821;51.988;6.020;2022-09-12T10:37:01;15.05;;;13.95;;
39066;SDS011;24821;51.988;6.020;2022-09-12T10:39:36;14.90;;;13.93;;
39066;SDS011;24821;51.988;6.020;2022-09-12T10:42:02;16.33;;;15.13;;
39066;SDS011;24821;51.988;6.020;2022-09-12T10:44:30;14.45;;;13.43;;
39066;SDS011;24821;51.988;6.020;2022-09-12T10:46:57;17.60;;;16.55;;
39066;SDS011;24821;51.988;6.020;2022-09-12T10:49:26;16.98;;;15.77;;
39066;SDS011;24821;51.988;6.020;2022-09-12T10:51:56;17.67;;;16.63;;
39066;SDS011;24821;51.988;6.020;2022-09-12T10:54:47;18.77;;;17.58;;
39066;SDS011;24821;51.988;6.020;2022-09-12T11:02:46;12.27;;;11.50;;
39066;SDS011;24821;51.988;6.020;2022-09-12T11:05:32;9.50;;;8.90;;
39066;SDS011;24821;51.988;6.020;2022-09-12T11:08:06;13.80;;;13.05;;
39066;SDS011;24821;51.988;6.020;2022-09-12T11:16:11;7.50;;;7.10;;
39066;SDS011;24821;51.988;6.020;2022-09-12T11:21:46;8.00;;;7.45;;
39066;SDS011;24821;51.988;6.020;2022-09-12T11:27:16;9.80;;;9.02;;
39066;SDS011;24821;51.988;6.020;2022-09-12T11:29:58;8.50;;;7.93;;
39066;SDS011;24821;51.988;6.020;2022-09-12T11:35:23;7.53;;;7.05;;
39066;SDS011;24821;51.988;6.020;2022-09-12T11:41:17;7.22;;;6.72;;
39066;SDS011;24821;51.988;6.020;2022-09-12T11:44:34;8.77;;;8.20;;
39066;SDS011;24821;51.988;6.020;2022-09-12T11:46:43;6.07;;;5.53;;
39066;SDS011;24821;51.988;6.020;2022-09-12T11:56:50;6.15;;;5.75;;
39066;SDS011;24821;51.988;6.020;2022-09-12T11:59:27;8.02;;;7.53;;
39066;SDS011;24821;51.988;6.020;2022-09-12T12:02:16;8.70;;;8.10;;
39066;SDS011;24821;51.988;6.020;2022-09-12T12:04:58;8.13;;;7.63;;
39066;SDS011;24821;51.988;6.020;2022-09-12T12:13:07;8.13;;;7.57;;
39066;SDS011;24821;51.988;6.020;2022-09-12T12:18:39;5.47;;;5.07;;
39066;SDS011;24821;51.988;6.020;2022-09-12T12:24:18;8.18;;;7.57;;
39066;SDS011;24821;51.988;6.020;2022-09-12T12:36:57;8.20;;;7.70;;
39066;SDS011;24821;51.988;6.020;2022-09-12T12:47:40;9.25;;;8.68;;
39066;SDS011;24821;51.988;6.020;2022-09-12T12:58:07;7.47;;;6.97;;
39066;SDS011;24821;51.988;6.020;2022-09-12T13:00:59;8.77;;;8.27;;
39066;SDS011;24821;51.988;6.020;2022-09-12T13:03:30;8.48;;;7.80;;
39066;SDS011;24821;51.988;6.020;2022-09-12T13:06:01;9.43;;;8.82;;
39066;SDS011;24821;51.988;6.020;2022-09-12T13:08:35;8.18;;;7.65;;
39066;SDS011;24821;51.988;6.020;2022-09-12T13:16:01;8.73;;;8.32;;
39066;SDS011;24821;51.988;6.020;2022-09-12T13:18:29;8.00;;;7.40;;
39066;SDS011;24821;51.988;6.020;2022-09-12T13:21:14;7.65;;;7.28;;
39066;SDS011;24821;51.988;6.020;2022-09-12T13:23:41;7.35;;;6.80;;
39066;SDS011;24821;51.988;6.020;2022-09-12T13:26:09;6.32;;;5.82;;
39066;SDS011;24821;51.988;6.020;2022-09-12T13:28:45;6.28;;;5.88;;
39066;SDS011;24821;51.988;6.020;2022-09-12T13:33:54;6.25;;;5.95;;
39066;SDS011;24821;51.988;6.020;2022-09-12T13:36:36;5.22;;;4.95;;
39066;SDS011;24821;51.988;6.020;2022-09-12T13:39:16;5.47;;;5.07;;
39066;SDS011;24821;51.988;6.020;2022-09-12T13:44:31;5.78;;;5.43;;
39066;SDS011;24821;51.988;6.020;2022-09-12T13:47:08;5.43;;;5.13;;
39066;SDS011;24821;51.988;6.020;2022-09-12T13:49:50;5.70;;;5.38;;
39066;SDS011;24821;51.988;6.020;2022-09-12T13:52:18;6.75;;;6.22;;
39066;SDS011;24821;51.988;6.020;2022-09-12T13:54:47;5.65;;;5.25;;
39066;SDS011;24821;51.988;6.020;2022-09-12T13:57:29;4.25;;;3.95;;
39066;SDS011;24821;51.988;6.020;2022-09-12T13:59:57;5.32;;;5.03;;
39066;SDS011;24821;51.988;6.020;2022-09-12T14:02:26;6.90;;;6.38;;
39066;SDS011;24821;51.988;6.020;2022-09-12T14:04:53;7.80;;;7.32;;
39066;SDS011;24821;51.988;6.020;2022-09-12T14:07:36;6.90;;;6.30;;
39066;SDS011;24821;51.988;6.020;2022-09-12T14:10:31;5.53;;;5.13;;
39066;SDS011;24821;51.988;6.020;2022-09-12T14:12:58;5.43;;;5.13;;
39066;SDS011;24821;51.988;6.020;2022-09-12T14:15:29;6.80;;;6.20;;
39066;SDS011;24821;51.988;6.020;2022-09-12T14:17:58;7.05;;;6.60;;
39066;SDS011;24821;51.988;6.020;2022-09-12T14:20:26;5.15;;;4.85;;
39066;SDS011;24821;51.988;6.020;2022-09-12T14:22:57;5.57;;;5.28;;
39066;SDS011;24821;51.988;6.020;2022-09-12T14:25:25;6.45;;;6.10;;
39066;SDS011;24821;51.988;6.020;2022-09-12T14:27:54;6.80;;;6.40;;
39066;SDS011;24821;51.988;6.020;2022-09-12T14:30:28;6.80;;;6.40;;
39066;SDS011;24821;51.988;6.020;2022-09-12T14:33:03;5.82;;;5.43;;
39066;SDS011;24821;51.988;6.020;2022-09-12T14:36:20;4.28;;;3.97;;
39066;SDS011;24821;51.988;6.020;2022-09-12T14:38:35;4.65;;;4.45;;
39066;SDS011;24821;51.988;6.020;2022-09-12T14:41:05;4.78;;;4.57;;
39066;SDS011;24821;51.988;6.020;2022-09-12T14:43:34;5.60;;;5.20;;
39066;SDS011;24821;51.988;6.020;2022-09-12T14:48:56;5.32;;;4.93;;
39066;SDS011;24821;51.988;6.020;2022-09-12T14:51:26;5.88;;;5.50;;
39066;SDS011;24821;51.988;6.020;2022-09-12T14:53:56;5.22;;;5.03;;
39066;SDS011;24821;51.988;6.020;2022-09-12T14:56:36;4.80;;;4.60;;
39066;SDS011;24821;51.988;6.020;2022-09-12T15:04:50;5.32;;;5.03;;
39066;SDS011;24821;51.988;6.020;2022-09-12T15:09:49;5.07;;;4.72;;
39066;SDS011;24821;51.988;6.020;2022-09-12T15:12:15;5.20;;;4.90;;
39066;SDS011;24821;51.988;6.020;2022-09-12T15:14:40;4.25;;;3.95;;
39066;SDS011;24821;51.988;6.020;2022-09-12T15:17:06;5.20;;;4.80;;
39066;SDS011;24821;51.988;6.020;2022-09-12T15:19:31;3.88;;;3.67;;
39066;SDS011;24821;51.988;6.020;2022-09-12T15:21:57;4.50;;;4.30;;
39066;SDS011;24821;51.988;6.020;2022-09-12T15:24:22;5.78;;;5.40;;
39066;SDS011;24821;51.988;6.020;2022-09-12T15:26:48;4.22;;;4.03;;
39066;SDS011;24821;51.988;6.020;2022-09-12T15:29:14;5.68;;;5.13;;
39066;SDS011;24821;51.988;6.020;2022-09-12T15:31:40;4.88;;;4.57;;
39066;SDS011;24821;51.988;6.020;2022-09-12T15:34:09;4.40;;;4.03;;
39066;SDS011;24821;51.988;6.020;2022-09-12T15:36:35;3.72;;;3.53;;
39066;SDS011;24821;51.988;6.020;2022-09-12T15:39:00;4.05;;;3.85;;
39066;SDS011;24821;51.988;6.020;2022-09-12T15:41:33;4.63;;;4.32;;
39066;SDS011;24821;51.988;6.020;2022-09-12T15:44:04;5.10;;;4.85;;
39066;SDS011;24821;51.988;6.020;2022-09-12T15:46:30;4.80;;;4.47;;
39066;SDS011;24821;51.988;6.020;2022-09-12T15:48:56;5.05;;;4.75;;
39066;SDS011;24821;51.988;6.020;2022-09-12T15:51:21;4.05;;;3.85;;
39066;SDS011;24821;51.988;6.020;2022-09-12T15:53:47;5.28;;;5.00;;
39066;SDS011;24821;51.988;6.020;2022-09-12T15:56:14;4.70;;;4.40;;
39066;SDS011;24821;51.988;6.020;2022-09-12T15:58:41;5.40;;;5.10;;
39066;SDS011;24821;51.988;6.020;2022-09-12T16:01:08;5.75;;;3.45;;
39066;SDS011;24821;51.988;6.020;2022-09-12T16:03:38;5.50;;;5.10;;
39066;SDS011;24821;51.988;6.020;2022-09-12T16:06:04;4.88;;;4.47;;
39066;SDS011;24821;51.988;6.020;2022-09-12T16:08:31;4.30;;;4.10;;
39066;SDS011;24821;51.988;6.020;2022-09-12T16:10:58;4.93;;;4.63;;
39066;SDS011;24821;51.988;6.020;2022-09-12T16:13:27;3.42;;;3.22;;
39066;SDS011;24821;51.988;6.020;2022-09-12T16:15:55;4.93;;;4.65;;
39066;SDS011;24821;51.988;6.020;2022-09-12T16:18:21;5.30;;;4.95;;
39066;SDS011;24821;51.988;6.020;2022-09-12T16:20:50;4.03;;;3.72;;
39066;SDS011;24821;51.988;6.020;2022-09-12T16:23:17;4.05;;;3.75;;
39066;SDS011;24821;51.988;6.020;2022-09-12T16:25:42;4.57;;;4.18;;
39066;SDS011;24821;51.988;6.020;2022-09-12T16:28:08;4.93;;;4.63;;
39066;SDS011;24821;51.988;6.020;2022-09-12T16:30:34;4.07;;;3.78;;
39066;SDS011;24821;51.988;6.020;2022-09-12T16:32:59;8.00;;;6.25;;
39066;SDS011;24821;51.988;6.020;2022-09-12T16:35:25;4.68;;;4.30;;
39066;SDS011;24821;51.988;6.020;2022-09-12T16:37:51;4.65;;;4.38;;
39066;SDS011;24821;51.988;6.020;2022-09-12T16:40:16;4.53;;;4.22;;
39066;SDS011;24821;51.988;6.020;2022-09-12T16:42:43;4.55;;;4.25;;
39066;SDS011;24821;51.988;6.020;2022-09-12T16:45:10;6.45;;;6.05;;
39066;SDS011;24821;51.988;6.020;2022-09-12T16:47:36;4.55;;;4.25;;
39066;SDS011;24821;51.988;6.020;2022-09-12T16:50:02;4.30;;;4.07;;
39066;SDS011;24821;51.988;6.020;2022-09-12T16:52:28;5.55;;;5.20;;
39066;SDS011;24821;51.988;6.020;2022-09-12T16:54:55;5.43;;;5.13;;
39066;SDS011;24821;51.988;6.020;2022-09-12T16:57:21;5.13;;;4.82;;
39066;SDS011;24821;51.988;6.020;2022-09-12T16:59:47;4.85;;;4.63;;
39066;SDS011;24821;51.988;6.020;2022-09-12T17:02:13;4.72;;;4.40;;
39066;SDS011;24821;51.988;6.020;2022-09-12T17:04:39;5.63;;;5.32;;
39066;SDS011;24821;51.988;6.020;2022-09-12T17:07:05;5.82;;;5.53;;
39066;SDS011;24821;51.988;6.020;2022-09-12T17:09:31;5.68;;;5.35;;
39066;SDS011;24821;51.988;6.020;2022-09-12T17:11:56;8.02;;;7.30;;
39066;SDS011;24821;51.988;6.020;2022-09-12T17:14:22;8.40;;;7.82;;
39066;SDS011;24821;51.988;6.020;2022-09-12T17:16:48;10.13;;;9.52;;
39066;SDS011;24821;51.988;6.020;2022-09-12T17:19:15;10.75;;;10.05;;
39066;SDS011;24821;51.988;6.020;2022-09-12T17:21:44;15.30;;;14.52;;
39066;SDS011;24821;51.988;6.020;2022-09-12T17:24:11;14.15;;;13.35;;
39066;SDS011;24821;51.988;6.020;2022-09-12T17:26:37;13.85;;;13.15;;
39066;SDS011;24821;51.988;6.020;2022-09-12T17:29:02;10.63;;;10.00;;
39066;SDS011;24821;51.988;6.020;2022-09-12T17:31:28;5.68;;;5.32;;